sensor_id;sensor_type;location;lat;lon;timestamp;P1;durP1;ratioP1;P2;durP2;ratioP2
65583;SDS011;62116;43.582;1.470;2023-02-28T00:00:16;4.55;;;3.05;;
65583;SDS011;62116;43.582;1.470;2023-02-28T00:02:42;5.28;;;3.08;;
65583;SDS011;62116;43.582;1.470;2023-02-28T00:05:09;4.35;;;2.92;;
65583;SDS011;62116;43.582;1.470;2023-02-28T00:07:36;6.03;;;3.08;;
65583;SDS011;62116;43.582;1.470;2023-02-28T00:10:03;4.95;;;2.70;;
65583;SDS011;62116;43.582;1.470;2023-02-28T00:12:29;5.40;;;2.67;;
65583;SDS011;62116;43.582;1.470;2023-02-28T00:14:54;4.50;;;2.85;;
65583;SDS011;62116;43.582;1.470;2023-02-28T00:17:20;5.30;;;2.70;;
65583;SDS011;62116;43.582;1.470;2023-02-28T00:19:48;4.80;;;2.72;;
65583;SDS011;62116;43.582;1.470;2023-02-28T00:22:16;8.60;;;2.80;;
65583;SDS011;62116;43.582;1.470;2023-02-28T00:24:42;5.13;;;2.88;;
65583;SDS011;62116;43.582;1.470;2023-02-28T00:27:07;5.35;;;3.13;;
65583;SDS011;62116;43.582;1.470;2023-02-28T00:29:33;5.63;;;3.60;;
65583;SDS011;62116;43.582;1.470;2023-02-28T00:31:58;5.28;;;3.40;;
65583;SDS011;62116;43.582;1.470;2023-02-28T00:34:24;6.10;;;3.42;;
65583;SDS011;62116;43.582;1.470;2023-02-28T00:36:49;4.75;;;2.80;;
65583;SDS011;62116;43.582;1.470;2023-02-28T00:39:15;5.82;;;3.20;;
65583;SDS011;62116;43.582;1.470;2023-02-28T00:41:40;5.00;;;2.90;;
65583;SDS011;62116;43.582;1.470;2023-02-28T00:44:06;6.82;;;2.75;;
65583;SDS011;62116;43.582;1.470;2023-02-28T00:46:32;4.25;;;2.75;;
65583;SDS011;62116;43.582;1.470;2023-02-28T00:48:57;4.25;;;2.83;;
65583;SDS011;62116;43.582;1.470;2023-02-28T00:51:23;4.78;;;2.90;;
65583;SDS011;62116;43.582;1.470;2023-02-28T00:53:48;4.78;;;2.95;;
65583;SDS011;62116;43.582;1.470;2023-02-28T00:56:14;6.35;;;2.97;;
65583;SDS011;62116;43.582;1.470;2023-02-28T00:58:39;7.45;;;2.97;;
65583;SDS011;62116;43.582;1.470;2023-02-28T01:01:05;3.90;;;2.70;;
65583;SDS011;62116;43.582;1.470;2023-02-28T01:03:31;5.25;;;2.65;;
65583;SDS011;62116;43.582;1.470;2023-02-28T01:05:56;4.57;;;2.88;;
65583;SDS011;62116;43.582;1.470;2023-02-28T01:08:22;4.88;;;2.80;;
65583;SDS011;62116;43.582;1.470;2023-02-28T01:10:48;4.97;;;2.60;;
65583;SDS011;62116;43.582;1.470;2023-02-28T01:13:13;4.97;;;2.75;;
65583;SDS011;62116;43.582;1.470;2023-02-28T01:15:43;5.43;;;2.63;;
65583;SDS011;62116;43.582;1.470;2023-02-28T01:18:14;4.22;;;2.40;;
65583;SDS011;62116;43.582;1.470;2023-02-28T01:20:39;5.18;;;2.92;;
65583;SDS011;62116;43.582;1.470;2023-02-28T01:23:05;5.60;;;2.70;;
65583;SDS011;62116;43.582;1.470;2023-02-28T01:25:30;4.00;;;2.50;;
65583;SDS011;62116;43.582;1.470;2023-02-28T01:27:56;4.68;;;2.97;;
65583;SDS011;62116;43.582;1.470;2023-02-28T01:30:21;5.43;;;2.90;;
65583;SDS011;62116;43.582;1.470;2023-02-28T01:32:46;5.82;;;2.90;;
65583;SDS011;62116;43.582;1.470;2023-02-28T01:35:12;6.07;;;2.92;;
65583;SDS011;62116;43.582;1.470;2023-02-28T01:37:37;5.35;;;3.00;;
65583;SDS011;62116;43.582;1.470;2023-02-28T01:40:03;4.90;;;3.03;;
65583;SDS011;62116;43.582;1.470;2023-02-28T01:42:29;5.97;;;2.85;;
65583;SDS011;62116;43.582;1.470;2023-02-28T01:45:00;5.85;;;2.75;;
65583;SDS011;62116;43.582;1.470;2023-02-28T01:47:43;6.07;;;2.97;;
65583;SDS011;62116;43.582;1.470;2023-02-28T01:50:11;5.57;;;3.13;;
65583;SDS011;62116;43.582;1.470;2023-02-28T01:52:40;5.40;;;3.00;;
65583;SDS011;62116;43.582;1.470;2023-02-28T01:55:07;7.38;;;2.88;;
65583;SDS011;62116;43.582;1.470;2023-02-28T01:57:36;5.82;;;3.08;;
65583;SDS011;62116;43.582;1.470;2023-02-28T02:00:08;4.55;;;2.70;;
65583;SDS011;62116;43.582;1.470;2023-02-28T02:02:38;5.03;;;2.78;;
65583;SDS011;62116;43.582;1.470;2023-02-28T02:05:09;5.75;;;2.70;;
65583;SDS011;62116;43.582;1.470;2023-02-28T02:07:41;6.47;;;3.25;;
65583;SDS011;62116;43.582;1.470;2023-02-28T02:10:14;6.15;;;3.03;;
65583;SDS011;62116;43.582;1.470;2023-02-28T02:15:16;5.90;;;3.28;;
65583;SDS011;62116;43.582;1.470;2023-02-28T02:17:56;4.70;;;3.10;;
65583;SDS011;62116;43.582;1.470;2023-02-28T02:23:11;5.97;;;3.03;;
65583;SDS011;62116;43.582;1.470;2023-02-28T02:29:04;5.10;;;3.00;;
65583;SDS011;62116;43.582;1.470;2023-02-28T02:31:50;5.72;;;3.10;;
65583;SDS011;62116;43.582;1.470;2023-02-28T02:39:45;6.82;;;3.13;;
65583;SDS011;62116;43.582;1.470;2023-02-28T02:42:21;4.85;;;2.80;;
65583;SDS011;62116;43.582;1.470;2023-02-28T02:44:58;7.22;;;3.22;;
65583;SDS011;62116;43.582;1.470;2023-02-28T02:47:29;4.90;;;2.95;;
65583;SDS011;62116;43.582;1.470;2023-02-28T02:49:57;5.47;;;3.08;;
65583;SDS011;62116;43.582;1.470;2023-02-28T02:52:30;5.45;;;2.95;;
65583;SDS011;62116;43.582;1.470;2023-02-28T02:55:03;4.55;;;3.00;;
65583;SDS011;62116;43.582;1.470;2023-02-28T02:57:34;4.47;;;2.95;;
65583;SDS011;62116;43.582;1.470;2023-02-28T03:00:05;7.00;;;3.25;;
65583;SDS011;62116;43.582;1.470;2023-02-28T03:02:34;5.05;;;2.88;;
65583;SDS011;62116;43.582;1.470;2023-02-28T03:05:04;5.57;;;3.30;;
65583;SDS011;62116;43.582;1.470;2023-02-28T03:07:37;5.22;;;3.35;;
65583;SDS011;62116;43.582;1.470;2023-02-28T03:10:02;7.43;;;3.13;;
65583;SDS011;62116;43.582;1.470;2023-02-28T03:12:32;5.45;;;3.00;;
65583;SDS011;62116;43.582;1.470;2023-02-28T03:15:08;4.28;;;2.95;;
65583;SDS011;62116;43.582;1.470;2023-02-28T03:18:00;7.15;;;3.00;;
65583;SDS011;62116;43.582;1.470;2023-02-28T03:20:37;7.63;;;3.30;;
65583;SDS011;62116;43.582;1.470;2023-02-28T03:23:16;5.38;;;3.65;;
65583;SDS011;62116;43.582;1.470;2023-02-28T03:28:43;4.68;;;3.08;;
65583;SDS011;62116;43.582;1.470;2023-02-28T03:31:41;5.18;;;3.30;;
65583;SDS011;62116;43.582;1.470;2023-02-28T03:34:26;5.10;;;3.03;;
65583;SDS011;62116;43.582;1.470;2023-02-28T03:37:00;7.93;;;3.40;;
65583;SDS011;62116;43.582;1.470;2023-02-28T03:39:35;8.18;;;3.55;;
65583;SDS011;62116;43.582;1.470;2023-02-28T03:42:06;7.03;;;3.50;;
65583;SDS011;62116;43.582;1.470;2023-02-28T03:44:45;5.03;;;3.37;;
65583;SDS011;62116;43.582;1.470;2023-02-28T03:47:25;6.53;;;3.38;;
65583;SDS011;62116;43.582;1.470;2023-02-28T03:52:22;6.43;;;3.70;;
65583;SDS011;62116;43.582;1.470;2023-02-28T03:54:52;6.38;;;3.58;;
65583;SDS011;62116;43.582;1.470;2023-02-28T03:57:35;6.95;;;3.55;;
65583;SDS011;62116;43.582;1.470;2023-02-28T04:00:15;7.40;;;3.90;;
65583;SDS011;62116;43.582;1.470;2023-02-28T04:03:02;6.80;;;3.60;;
65583;SDS011;62116;43.582;1.470;2023-02-28T04:05:28;6.68;;;3.63;;
65583;SDS011;62116;43.582;1.470;2023-02-28T04:08:03;6.55;;;3.40;;
65583;SDS011;62116;43.582;1.470;2023-02-28T04:10:30;6.57;;;3.63;;
65583;SDS011;62116;43.582;1.470;2023-02-28T04:12:55;6.03;;;3.60;;
65583;SDS011;62116;43.582;1.470;2023-02-28T04:15:20;6.00;;;3.35;;
65583;SDS011;62116;43.582;1.470;2023-02-28T04:17:47;5.75;;;3.40;;
65583;SDS011;62116;43.582;1.470;2023-02-28T04:20:13;6.65;;;3.78;;
65583;SDS011;62116;43.582;1.470;2023-02-28T04:22:38;6.00;;;3.70;;
65583;SDS011;62116;43.582;1.470;2023-02-28T04:25:04;6.55;;;3.58;;
65583;SDS011;62116;43.582;1.470;2023-02-28T04:27:30;6.57;;;3.47;;
65583;SDS011;62116;43.582;1.470;2023-02-28T04:29:56;7.18;;;3.47;;
65583;SDS011;62116;43.582;1.470;2023-02-28T04:32:21;5.22;;;3.47;;
65583;SDS011;62116;43.582;1.470;2023-02-28T04:34:46;5.55;;;3.25;;
65583;SDS011;62116;43.582;1.470;2023-02-28T04:37:12;7.78;;;3.53;;
65583;SDS011;62116;43.582;1.470;2023-02-28T04:39:37;6.57;;;3.50;;
65583;SDS011;62116;43.582;1.470;2023-02-28T04:42:03;6.07;;;3.40;;
65583;SDS011;62116;43.582;1.470;2023-02-28T04:44:29;6.88;;;3.50;;
65583;SDS011;62116;43.582;1.470;2023-02-28T04:46:54;7.65;;;3.28;;
65583;SDS011;62116;43.582;1.470;2023-02-28T04:49:20;5.53;;;3.45;;
65583;SDS011;62116;43.582;1.470;2023-02-28T04:51:45;5.45;;;3.80;;
65583;SDS011;62116;43.582;1.470;2023-02-28T04:54:11;5.85;;;3.53;;
65583;SDS011;62116;43.582;1.470;2023-02-28T04:56:38;5.82;;;3.53;;
65583;SDS011;62116;43.582;1.470;2023-02-28T04:59:03;6.13;;;3.55;;
65583;SDS011;62116;43.582;1.470;2023-02-28T05:01:30;6.03;;;3.65;;
65583;SDS011;62116;43.582;1.470;2023-02-28T05:03:58;6.03;;;3.70;;
65583;SDS011;62116;43.582;1.470;2023-02-28T05:06:25;8.40;;;4.22;;
65583;SDS011;62116;43.582;1.470;2023-02-28T05:08:52;6.28;;;3.78;;
65583;SDS011;62116;43.582;1.470;2023-02-28T05:11:19;7.72;;;4.18;;
65583;SDS011;62116;43.582;1.470;2023-02-28T05:13:46;6.10;;;3.78;;
65583;SDS011;62116;43.582;1.470;2023-02-28T05:16:13;6.45;;;3.92;;
65583;SDS011;62116;43.582;1.470;2023-02-28T05:18:39;5.65;;;3.88;;
65583;SDS011;62116;43.582;1.470;2023-02-28T05:21:04;6.72;;;4.03;;
65583;SDS011;62116;43.582;1.470;2023-02-28T05:23:30;8.70;;;3.97;;
65583;SDS011;62116;43.582;1.470;2023-02-28T05:25:56;6.55;;;3.80;;
65583;SDS011;62116;43.582;1.470;2023-02-28T05:28:21;7.53;;;3.53;;
65583;SDS011;62116;43.582;1.470;2023-02-28T05:30:47;7.35;;;4.00;;
65583;SDS011;62116;43.582;1.470;2023-02-28T05:33:14;6.82;;;3.90;;
65583;SDS011;62116;43.582;1.470;2023-02-28T05:35:40;8.60;;;3.95;;
65583;SDS011;62116;43.582;1.470;2023-02-28T05:38:07;6.38;;;4.20;;
65583;SDS011;62116;43.582;1.470;2023-02-28T05:40:33;6.90;;;3.95;;
65583;SDS011;62116;43.582;1.470;2023-02-28T05:42:58;6.43;;;4.20;;
65583;SDS011;62116;43.582;1.470;2023-02-28T05:45:24;5.70;;;3.78;;
65583;SDS011;62116;43.582;1.470;2023-02-28T05:47:52;7.47;;;4.60;;
65583;SDS011;62116;43.582;1.470;2023-02-28T05:50:18;7.00;;;4.35;;
65583;SDS011;62116;43.582;1.470;2023-02-28T05:52:43;6.75;;;4.20;;
65583;SDS011;62116;43.582;1.470;2023-02-28T05:55:09;7.90;;;4.57;;
65583;SDS011;62116;43.582;1.470;2023-02-28T05:57:34;7.82;;;4.88;;
65583;SDS011;62116;43.582;1.470;2023-02-28T06:00:00;7.00;;;4.50;;
65583;SDS011;62116;43.582;1.470;2023-02-28T06:02:25;7.20;;;4.28;;
65583;SDS011;62116;43.582;1.470;2023-02-28T06:04:51;7.10;;;4.55;;
65583;SDS011;62116;43.582;1.470;2023-02-28T06:07:16;7.82;;;4.60;;
65583;SDS011;62116;43.582;1.470;2023-02-28T06:09:42;8.90;;;4.80;;
65583;SDS011;62116;43.582;1.470;2023-02-28T06:12:08;8.82;;;4.60;;
65583;SDS011;62116;43.582;1.470;2023-02-28T06:14:35;8.32;;;4.88;;
65583;SDS011;62116;43.582;1.470;2023-02-28T06:17:01;8.02;;;4.72;;
65583;SDS011;62116;43.582;1.470;2023-02-28T06:19:27;8.35;;;4.95;;
65583;SDS011;62116;43.582;1.470;2023-02-28T06:21:55;8.88;;;4.95;;
65583;SDS011;62116;43.582;1.470;2023-02-28T06:24:22;9.85;;;5.70;;
65583;SDS011;62116;43.582;1.470;2023-02-28T06:26:49;9.15;;;5.75;;
65583;SDS011;62116;43.582;1.470;2023-02-28T06:29:14;9.70;;;4.95;;
65583;SDS011;62116;43.582;1.470;2023-02-28T06:31:47;8.65;;;5.10;;
65583;SDS011;62116;43.582;1.470;2023-02-28T06:34:13;9.93;;;4.97;;
65583;SDS011;62116;43.582;1.470;2023-02-28T06:36:39;10.13;;;5.75;;
65583;SDS011;62116;43.582;1.470;2023-02-28T06:39:06;10.63;;;5.20;;
65583;SDS011;62116;43.582;1.470;2023-02-28T06:41:32;13.13;;;5.18;;
65583;SDS011;62116;43.582;1.470;2023-02-28T06:44:02;12.65;;;5.43;;
65583;SDS011;62116;43.582;1.470;2023-02-28T06:46:35;9.05;;;5.43;;
65583;SDS011;62116;43.582;1.470;2023-02-28T06:49:01;8.30;;;4.65;;
65583;SDS011;62116;43.582;1.470;2023-02-28T06:51:27;12.73;;;6.78;;
65583;SDS011;62116;43.582;1.470;2023-02-28T06:53:52;12.45;;;6.30;;
65583;SDS011;62116;43.582;1.470;2023-02-28T06:56:18;8.65;;;5.30;;
65583;SDS011;62116;43.582;1.470;2023-02-28T06:58:48;11.70;;;5.82;;
65583;SDS011;62116;43.582;1.470;2023-02-28T07:01:15;9.20;;;5.40;;
65583;SDS011;62116;43.582;1.470;2023-02-28T07:03:42;9.80;;;5.30;;
65583;SDS011;62116;43.582;1.470;2023-02-28T07:06:07;9.90;;;5.55;;
65583;SDS011;62116;43.582;1.470;2023-02-28T07:08:33;8.48;;;4.72;;
65583;SDS011;62116;43.582;1.470;2023-02-28T07:11:00;9.75;;;5.07;;
65583;SDS011;62116;43.582;1.470;2023-02-28T07:13:26;8.02;;;5.15;;
65583;SDS011;62116;43.582;1.470;2023-02-28T07:16:02;9.00;;;5.20;;
65583;SDS011;62116;43.582;1.470;2023-02-28T07:18:30;9.55;;;5.05;;
65583;SDS011;62116;43.582;1.470;2023-02-28T07:20:56;8.35;;;4.95;;
65583;SDS011;62116;43.582;1.470;2023-02-28T07:23:22;10.02;;;5.10;;
65583;SDS011;62116;43.582;1.470;2023-02-28T07:25:49;9.43;;;5.18;;
65583;SDS011;62116;43.582;1.470;2023-02-28T07:28:15;9.75;;;5.30;;
65583;SDS011;62116;43.582;1.470;2023-02-28T07:30:41;10.38;;;4.95;;
65583;SDS011;62116;43.582;1.470;2023-02-28T07:33:07;9.48;;;4.75;;
65583;SDS011;62116;43.582;1.470;2023-02-28T07:35:33;8.27;;;4.55;;
65583;SDS011;62116;43.582;1.470;2023-02-28T07:37:59;8.98;;;4.78;;
65583;SDS011;62116;43.582;1.470;2023-02-28T07:40:25;8.63;;;4.70;;
65583;SDS011;62116;43.582;1.470;2023-02-28T07:42:51;9.32;;;5.10;;
65583;SDS011;62116;43.582;1.470;2023-02-28T07:45:16;8.63;;;4.57;;
65583;SDS011;62116;43.582;1.470;2023-02-28T07:47:42;9.43;;;4.95;;
65583;SDS011;62116;43.582;1.470;2023-02-28T07:50:09;10.02;;;5.10;;
65583;SDS011;62116;43.582;1.470;2023-02-28T07:52:36;7.32;;;4.65;;
65583;SDS011;62116;43.582;1.470;2023-02-28T07:55:03;9.88;;;5.13;;
65583;SDS011;62116;43.582;1.470;2023-02-28T07:57:30;8.20;;;4.85;;
65583;SDS011;62116;43.582;1.470;2023-02-28T07:59:55;7.18;;;4.63;;
65583;SDS011;62116;43.582;1.470;2023-02-28T08:02:21;10.70;;;4.82;;
65583;SDS011;62116;43.582;1.470;2023-02-28T08:04:48;11.57;;;4.95;;
65583;SDS011;62116;43.582;1.470;2023-02-28T08:07:14;6.47;;;4.22;;
65583;SDS011;62116;43.582;1.470;2023-02-28T08:09:40;10.40;;;4.30;;
65583;SDS011;62116;43.582;1.470;2023-02-28T08:12:06;6.25;;;4.13;;
65583;SDS011;62116;43.582;1.470;2023-02-28T08:14:32;8.43;;;4.18;;
65583;SDS011;62116;43.582;1.470;2023-02-28T08:16:59;6.60;;;4.28;;
65583;SDS011;62116;43.582;1.470;2023-02-28T08:19:24;9.18;;;4.93;;
65583;SDS011;62116;43.582;1.470;2023-02-28T08:21:50;7.15;;;4.38;;
65583;SDS011;62116;43.582;1.470;2023-02-28T08:24:15;7.03;;;4.07;;
65583;SDS011;62116;43.582;1.470;2023-02-28T08:26:41;10.57;;;4.60;;
65583;SDS011;62116;43.582;1.470;2023-02-28T08:29:06;7.15;;;4.50;;
65583;SDS011;62116;43.582;1.470;2023-02-28T08:31:31;9.57;;;4.88;;
65583;SDS011;62116;43.582;1.470;2023-02-28T08:33:57;8.10;;;4.60;;
65583;SDS011;62116;43.582;1.470;2023-02-28T08:36:24;8.05;;;4.55;;
65583;SDS011;62116;43.582;1.470;2023-02-28T08:38:50;8.00;;;4.53;;
65583;SDS011;62116;43.582;1.470;2023-02-28T08:41:16;8.15;;;4.72;;
65583;SDS011;62116;43.582;1.470;2023-02-28T08:43:42;8.27;;;4.55;;
65583;SDS011;62116;43.582;1.470;2023-02-28T08:46:07;6.78;;;4.47;;
65583;SDS011;62116;43.582;1.470;2023-02-28T08:48:35;10.88;;;4.75;;
65583;SDS011;62116;43.582;1.470;2023-02-28T08:51:23;8.15;;;4.53;;
65583;SDS011;62116;43.582;1.470;2023-02-28T08:53:54;6.22;;;3.95;;
65583;SDS011;62116;43.582;1.470;2023-02-28T08:56:23;6.10;;;3.72;;
65583;SDS011;62116;43.582;1.470;2023-02-28T08:58:49;5.35;;;3.40;;
65583;SDS011;62116;43.582;1.470;2023-02-28T09:01:16;5.65;;;3.72;;
65583;SDS011;62116;43.582;1.470;2023-02-28T09:03:44;7.47;;;3.78;;
65583;SDS011;62116;43.582;1.470;2023-02-28T09:06:11;8.00;;;3.85;;
65583;SDS011;62116;43.582;1.470;2023-02-28T09:08:38;8.45;;;3.85;;
65583;SDS011;62116;43.582;1.470;2023-02-28T09:11:05;5.55;;;3.53;;
65583;SDS011;62116;43.582;1.470;2023-02-28T09:13:30;8.20;;;3.85;;
65583;SDS011;62116;43.582;1.470;2023-02-28T09:15:57;5.95;;;3.63;;
65583;SDS011;62116;43.582;1.470;2023-02-28T09:18:24;6.78;;;3.90;;
65583;SDS011;62116;43.582;1.470;2023-02-28T09:20:51;6.63;;;3.83;;
65583;SDS011;62116;43.582;1.470;2023-02-28T09:23:16;5.78;;;3.88;;
65583;SDS011;62116;43.582;1.470;2023-02-28T09:25:46;10.95;;;4.05;;
65583;SDS011;62116;43.582;1.470;2023-02-28T09:28:19;6.57;;;3.75;;
65583;SDS011;62116;43.582;1.470;2023-02-28T09:30:46;7.47;;;3.88;;
65583;SDS011;62116;43.582;1.470;2023-02-28T09:33:16;6.03;;;3.72;;
65583;SDS011;62116;43.582;1.470;2023-02-28T09:35:45;6.18;;;3.70;;
65583;SDS011;62116;43.582;1.470;2023-02-28T09:38:11;5.57;;;3.53;;
65583;SDS011;62116;43.582;1.470;2023-02-28T09:40:37;5.50;;;3.60;;
65583;SDS011;62116;43.582;1.470;2023-02-28T09:43:25;8.45;;;3.65;;
65583;SDS011;62116;43.582;1.470;2023-02-28T09:45:59;5.88;;;3.70;;
65583;SDS011;62116;43.582;1.470;2023-02-28T09:48:35;5.85;;;3.90;;
65583;SDS011;62116;43.582;1.470;2023-02-28T09:51:50;5.80;;;3.50;;
65583;SDS011;62116;43.582;1.470;2023-02-28T09:53:55;5.20;;;3.70;;
65583;SDS011;62116;43.582;1.470;2023-02-28T09:56:22;9.32;;;4.63;;
65583;SDS011;62116;43.582;1.470;2023-02-28T09:58:59;6.22;;;3.72;;
65583;SDS011;62116;43.582;1.470;2023-02-28T10:01:47;7.28;;;4.00;;
65583;SDS011;62116;43.582;1.470;2023-02-28T10:07:12;8.07;;;4.07;;
65583;SDS011;62116;43.582;1.470;2023-02-28T10:09:46;7.43;;;4.13;;
65583;SDS011;62116;43.582;1.470;2023-02-28T10:12:14;7.10;;;4.10;;
65583;SDS011;62116;43.582;1.470;2023-02-28T10:14:43;6.82;;;4.22;;
65583;SDS011;62116;43.582;1.470;2023-02-28T10:17:21;5.75;;;3.80;;
65583;SDS011;62116;43.582;1.470;2023-02-28T10:22:17;6.10;;;3.95;;
65583;SDS011;62116;43.582;1.470;2023-02-28T10:24:51;4.88;;;3.50;;
65583;SDS011;62116;43.582;1.470;2023-02-28T10:27:19;6.03;;;3.55;;
65583;SDS011;62116;43.582;1.470;2023-02-28T10:29:48;7.75;;;3.90;;
65583;SDS011;62116;43.582;1.470;2023-02-28T10:32:17;6.07;;;3.35;;
65583;SDS011;62116;43.582;1.470;2023-02-28T10:34:51;5.70;;;3.60;;
65583;SDS011;62116;43.582;1.470;2023-02-28T10:37:20;7.35;;;3.88;;
65583;SDS011;62116;43.582;1.470;2023-02-28T10:39:46;11.00;;;3.90;;
65583;SDS011;62116;43.582;1.470;2023-02-28T10:42:25;8.98;;;4.00;;
65583;SDS011;62116;43.582;1.470;2023-02-28T10:47:31;10.23;;;4.30;;
65583;SDS011;62116;43.582;1.470;2023-02-28T10:49:59;6.45;;;4.00;;
65583;SDS011;62116;43.582;1.470;2023-02-28T10:52:38;6.47;;;4.00;;
65583;SDS011;62116;43.582;1.470;2023-02-28T10:55:21;6.80;;;3.85;;
65583;SDS011;62116;43.582;1.470;2023-02-28T10:57:50;5.70;;;3.90;;
65583;SDS011;62116;43.582;1.470;2023-02-28T11:00:19;5.50;;;3.45;;
65583;SDS011;62116;43.582;1.470;2023-02-28T11:02:46;7.28;;;4.28;;
65583;SDS011;62116;43.582;1.470;2023-02-28T11:05:23;5.75;;;3.70;;
65583;SDS011;62116;43.582;1.470;2023-02-28T11:07:55;8.88;;;3.92;;
65583;SDS011;62116;43.582;1.470;2023-02-28T11:10:25;7.97;;;4.47;;
65583;SDS011;62116;43.582;1.470;2023-02-28T11:12:57;6.35;;;4.20;;
65583;SDS011;62116;43.582;1.470;2023-02-28T11:15:23;6.30;;;4.28;;
65583;SDS011;62116;43.582;1.470;2023-02-28T11:20:30;6.97;;;3.83;;
65583;SDS011;62116;43.582;1.470;2023-02-28T11:22:58;7.10;;;3.85;;
65583;SDS011;62116;43.582;1.470;2023-02-28T11:25:28;9.45;;;4.75;;
65583;SDS011;62116;43.582;1.470;2023-02-28T11:27:58;8.25;;;4.68;;
65583;SDS011;62116;43.582;1.470;2023-02-28T11:30:36;7.72;;;4.85;;
65583;SDS011;62116;43.582;1.470;2023-02-28T11:33:22;8.07;;;4.32;;
65583;SDS011;62116;43.582;1.470;2023-02-28T11:36:11;8.52;;;4.20;;
65583;SDS011;62116;43.582;1.470;2023-02-28T11:38:39;6.55;;;3.97;;
65583;SDS011;62116;43.582;1.470;2023-02-28T11:41:09;6.47;;;4.22;;
65583;SDS011;62116;43.582;1.470;2023-02-28T11:49:11;6.45;;;4.05;;
65583;SDS011;62116;43.582;1.470;2023-02-28T11:52:01;6.22;;;4.10;;
65583;SDS011;62116;43.582;1.470;2023-02-28T12:00:27;7.18;;;3.85;;
65583;SDS011;62116;43.582;1.470;2023-02-28T12:16:59;6.85;;;3.75;;
65583;SDS011;62116;43.582;1.470;2023-02-28T12:19:30;5.00;;;3.30;;
65583;SDS011;62116;43.582;1.470;2023-02-28T12:27:13;5.75;;;3.65;;
65583;SDS011;62116;43.582;1.470;2023-02-28T12:29:56;5.57;;;3.70;;
65583;SDS011;62116;43.582;1.470;2023-02-28T12:32:30;7.22;;;3.60;;
65583;SDS011;62116;43.582;1.470;2023-02-28T12:35:21;6.50;;;3.78;;
65583;SDS011;62116;43.582;1.470;2023-02-28T12:37:49;5.72;;;3.60;;
65583;SDS011;62116;43.582;1.470;2023-02-28T12:40:32;6.97;;;4.00;;
65583;SDS011;62116;43.582;1.470;2023-02-28T12:43:07;7.22;;;4.20;;
65583;SDS011;62116;43.582;1.470;2023-02-28T12:45:40;6.75;;;3.97;;
65583;SDS011;62116;43.582;1.470;2023-02-28T12:48:42;8.05;;;4.32;;
65583;SDS011;62116;43.582;1.470;2023-02-28T12:51:11;7.05;;;3.80;;
65583;SDS011;62116;43.582;1.470;2023-02-28T12:59:53;6.80;;;3.90;;
65583;SDS011;62116;43.582;1.470;2023-02-28T13:10:24;6.22;;;4.07;;
65583;SDS011;62116;43.582;1.470;2023-02-28T13:13:01;6.38;;;4.00;;
65583;SDS011;62116;43.582;1.470;2023-02-28T13:15:28;7.10;;;4.18;;
65583;SDS011;62116;43.582;1.470;2023-02-28T13:18:03;5.43;;;3.72;;
65583;SDS011;62116;43.582;1.470;2023-02-28T13:20:31;5.55;;;3.67;;
65583;SDS011;62116;43.582;1.470;2023-02-28T13:22:59;5.72;;;3.85;;
65583;SDS011;62116;43.582;1.470;2023-02-28T13:27:58;6.00;;;3.78;;
65583;SDS011;62116;43.582;1.470;2023-02-28T13:35:49;5.53;;;3.63;;
65583;SDS011;62116;43.582;1.470;2023-02-28T13:38:37;6.78;;;3.90;;
65583;SDS011;62116;43.582;1.470;2023-02-28T13:44:08;6.15;;;3.55;;
65583;SDS011;62116;43.582;1.470;2023-02-28T13:51:49;4.70;;;3.20;;
65583;SDS011;62116;43.582;1.470;2023-02-28T14:03:04;6.88;;;3.83;;
65583;SDS011;62116;43.582;1.470;2023-02-28T14:05:38;4.93;;;3.17;;
65583;SDS011;62116;43.582;1.470;2023-02-28T14:08:17;4.43;;;2.90;;
65583;SDS011;62116;43.582;1.470;2023-02-28T14:10:49;3.97;;;2.90;;
65583;SDS011;62116;43.582;1.470;2023-02-28T14:15:56;4.65;;;2.90;;
65583;SDS011;62116;43.582;1.470;2023-02-28T14:26:33;7.05;;;3.35;;
65583;SDS011;62116;43.582;1.470;2023-02-28T14:29:21;4.93;;;2.97;;
65583;SDS011;62116;43.582;1.470;2023-02-28T14:34:42;5.82;;;3.53;;
65583;SDS011;62116;43.582;1.470;2023-02-28T14:37:30;6.30;;;3.55;;
65583;SDS011;62116;43.582;1.470;2023-02-28T14:40:01;6.30;;;3.40;;
65583;SDS011;62116;43.582;1.470;2023-02-28T14:42:33;5.50;;;3.40;;
65583;SDS011;62116;43.582;1.470;2023-02-28T14:45:01;6.15;;;3.33;;
65583;SDS011;62116;43.582;1.470;2023-02-28T14:47:31;6.60;;;3.72;;
65583;SDS011;62116;43.582;1.470;2023-02-28T14:49:58;5.78;;;3.22;;
65583;SDS011;62116;43.582;1.470;2023-02-28T14:52:26;4.65;;;3.08;;
65583;SDS011;62116;43.582;1.470;2023-02-28T14:54:55;5.03;;;3.17;;
65583;SDS011;62116;43.582;1.470;2023-02-28T14:57:26;5.70;;;3.33;;
65583;SDS011;62116;43.582;1.470;2023-02-28T14:59:59;5.32;;;3.13;;
65583;SDS011;62116;43.582;1.470;2023-02-28T15:02:34;4.15;;;2.90;;
65583;SDS011;62116;43.582;1.470;2023-02-28T15:05:02;9.73;;;3.70;;
65583;SDS011;62116;43.582;1.470;2023-02-28T15:07:38;4.55;;;2.95;;
65583;SDS011;62116;43.582;1.470;2023-02-28T15:10:11;9.48;;;3.35;;
65583;SDS011;62116;43.582;1.470;2023-02-28T15:13:02;4.88;;;3.00;;
65583;SDS011;62116;43.582;1.470;2023-02-28T15:18:27;4.88;;;2.90;;
65583;SDS011;62116;43.582;1.470;2023-02-28T15:21:04;4.70;;;2.88;;
65583;SDS011;62116;43.582;1.470;2023-02-28T15:23:32;6.97;;;2.97;;
65583;SDS011;62116;43.582;1.470;2023-02-28T15:26:01;4.75;;;3.15;;
65583;SDS011;62116;43.582;1.470;2023-02-28T15:28:27;6.75;;;3.17;;
65583;SDS011;62116;43.582;1.470;2023-02-28T15:31:00;5.10;;;3.17;;
65583;SDS011;62116;43.582;1.470;2023-02-28T15:33:31;6.15;;;3.10;;
65583;SDS011;62116;43.582;1.470;2023-02-28T15:36:11;5.20;;;3.20;;
65583;SDS011;62116;43.582;1.470;2023-02-28T15:38:42;5.50;;;3.08;;
65583;SDS011;62116;43.582;1.470;2023-02-28T15:41:22;5.75;;;2.97;;
65583;SDS011;62116;43.582;1.470;2023-02-28T15:44:14;5.03;;;2.78;;
65583;SDS011;62116;43.582;1.470;2023-02-28T15:46:43;6.13;;;3.15;;
65583;SDS011;62116;43.582;1.470;2023-02-28T15:49:39;5.57;;;2.92;;
65583;SDS011;62116;43.582;1.470;2023-02-28T15:52:11;6.50;;;2.80;;
65583;SDS011;62116;43.582;1.470;2023-02-28T15:54:40;5.35;;;3.10;;
65583;SDS011;62116;43.582;1.470;2023-02-28T15:57:10;7.05;;;3.03;;
65583;SDS011;62116;43.582;1.470;2023-02-28T15:59:42;5.63;;;3.40;;
65583;SDS011;62116;43.582;1.470;2023-02-28T16:02:16;4.28;;;2.70;;
65583;SDS011;62116;43.582;1.470;2023-02-28T16:05:01;7.35;;;3.28;;
65583;SDS011;62116;43.582;1.470;2023-02-28T16:07:52;6.47;;;3.33;;
65583;SDS011;62116;43.582;1.470;2023-02-28T16:10:23;6.95;;;3.28;;
65583;SDS011;62116;43.582;1.470;2023-02-28T16:12:52;4.93;;;3.08;;
65583;SDS011;62116;43.582;1.470;2023-02-28T16:15:19;7.45;;;2.83;;
65583;SDS011;62116;43.582;1.470;2023-02-28T16:17:48;6.18;;;3.13;;
65583;SDS011;62116;43.582;1.470;2023-02-28T16:22:41;5.43;;;2.92;;
65583;SDS011;62116;43.582;1.470;2023-02-28T16:25:08;8.70;;;3.30;;
65583;SDS011;62116;43.582;1.470;2023-02-28T16:27:36;7.40;;;3.88;;
65583;SDS011;62116;43.582;1.470;2023-02-28T16:30:06;5.20;;;3.30;;
65583;SDS011;62116;43.582;1.470;2023-02-28T16:32:36;5.85;;;3.47;;
65583;SDS011;62116;43.582;1.470;2023-02-28T16:35:02;4.85;;;3.00;;
65583;SDS011;62116;43.582;1.470;2023-02-28T16:37:28;5.32;;;3.15;;
65583;SDS011;62116;43.582;1.470;2023-02-28T16:39:53;5.10;;;3.28;;
65583;SDS011;62116;43.582;1.470;2023-02-28T16:42:23;5.75;;;3.28;;
65583;SDS011;62116;43.582;1.470;2023-02-28T16:44:52;6.18;;;2.95;;
65583;SDS011;62116;43.582;1.470;2023-02-28T16:47:18;4.82;;;3.15;;
65583;SDS011;62116;43.582;1.470;2023-02-28T16:49:43;6.80;;;3.70;;
65583;SDS011;62116;43.582;1.470;2023-02-28T16:52:09;8.30;;;3.60;;
65583;SDS011;62116;43.582;1.470;2023-02-28T16:54:37;7.00;;;3.47;;
65583;SDS011;62116;43.582;1.470;2023-02-28T16:57:03;5.05;;;3.38;;
65583;SDS011;62116;43.582;1.470;2023-02-28T16:59:30;9.82;;;3.67;;
65583;SDS011;62116;43.582;1.470;2023-02-28T17:01:55;7.68;;;3.58;;